createdAt,value
2023-01-19T00:00:12.172Z,99269.59
2023-01-19T00:05:06.344Z,99287.37
2023-01-19T00:09:59.760Z,99299.35
2023-01-19T00:14:52.644Z,99302.98
2023-01-19T00:19:45.506Z,99302.61
2023-01-19T00:24:38.369Z,99309.91
2023-01-19T00:29:33.639Z,99316.75
2023-01-19T00:34:26.457Z,99334.94
2023-01-19T00:39:19.264Z,99340.46
2023-01-19T00:44:13.516Z,99342.81
2023-01-19T00:49:06.769Z,99352.16
2023-01-19T00:54:04.965Z,99351.48
2023-01-19T00:58:57.879Z,99344.31
2023-01-19T01:03:50.736Z,99338.91
2023-01-19T01:08:43.571Z,99332.55
2023-01-19T01:13:36.389Z,99324.80
2023-01-19T01:18:29.216Z,99316.95
2023-01-19T01:23:23.126Z,99317.34
2023-01-19T01:28:16.018Z,99318.45
2023-01-19T01:33:09.510Z,99322.14
2023-01-19T01:38:02.678Z,99316.14
2023-01-19T01:42:55.868Z,99313.98
2023-01-19T01:47:51.101Z,99322.00
2023-01-19T01:53:06.861Z,99319.37
2023-01-19T01:58:05.805Z,99315.17
2023-01-19T02:03:00.419Z,99316.79
2023-01-19T02:08:34.180Z,99323.36
2023-01-19T02:13:27.373Z,99316.73
2023-01-19T02:18:22.624Z,99314.45
2023-01-19T02:23:22.030Z,99309.11
2023-01-19T02:28:16.497Z,99304.33
2023-01-19T02:33:09.595Z,99303.23
2023-01-19T02:38:03.915Z,99307.00
2023-01-19T02:43:01.401Z,99313.35
2023-01-19T02:47:54.913Z,99318.20
2023-01-19T02:52:47.969Z,99310.56
2023-01-19T02:58:05.933Z,99305.82
2023-01-19T03:03:06.293Z,99302.77
2023-01-19T03:08:05.240Z,99311.69
2023-01-19T03:13:07.368Z,99311.54
2023-01-19T03:18:03.709Z,99312.48
2023-01-19T03:23:05.467Z,99316.33
2023-01-19T03:28:00.024Z,99321.97
2023-01-19T03:32:58.464Z,99331.02
2023-01-19T03:37:55.791Z,99335.35
2023-01-19T03:42:51.891Z,99340.53
2023-01-19T03:47:45.200Z,99346.73
2023-01-19T03:52:38.299Z,99348.14
2023-01-19T03:57:31.679Z,99355.48
2023-01-19T04:02:25.710Z,99360.39
2023-01-19T04:07:18.637Z,99367.90
2023-01-19T04:12:11.454Z,99370.65
2023-01-19T04:17:04.735Z,99384.63
2023-01-19T04:21:58.727Z,99382.64
2023-01-19T04:26:53.834Z,99386.28
2023-01-19T04:31:46.617Z,99392.84
2023-01-19T04:36:39.938Z,99401.23
2023-01-19T04:41:32.877Z,99399.69
2023-01-19T04:46:26.041Z,99406.20
2023-01-19T04:51:19.091Z,99420.56
2023-01-19T04:56:12.565Z,99420.77
2023-01-19T05:01:09.718Z,99423.35
2023-01-19T05:06:03.049Z,99433.04
2023-01-19T05:10:57.724Z,99433.13
2023-01-19T05:15:50.624Z,99446.99
2023-01-19T05:20:43.420Z,99448.72
2023-01-19T05:25:36.388Z,99450.64
2023-01-19T05:30:29.300Z,99448.20
2023-01-19T05:35:31.381Z,99441.73
2023-01-19T05:40:28.730Z,99448.09
2023-01-19T05:45:21.534Z,99453.23
2023-01-19T05:50:14.433Z,99452.21
2023-01-19T05:55:07.961Z,99451.85
2023-01-19T06:00:00.807Z,99456.31
2023-01-19T06:04:54.579Z,99456.48
2023-01-19T06:09:47.396Z,99458.41
2023-01-19T06:14:40.940Z,99472.75
2023-01-19T06:19:33.826Z,99493.91
2023-01-19T06:24:26.656Z,99503.83
2023-01-19T06:29:19.531Z,99521.98
2023-01-19T06:34:12.360Z,99529.67
2023-01-19T06:39:06.221Z,99540.63
2023-01-19T06:43:59.075Z,99544.25
2023-01-19T06:48:51.882Z,99547.39
2023-01-19T06:53:45.444Z,99549.68
2023-01-19T06:58:38.691Z,99558.07
2023-01-19T07:03:32.086Z,99552.66
2023-01-19T07:08:25.513Z,99535.95
2023-01-19T07:13:18.334Z,99525.77
2023-01-19T07:18:11.121Z,99517.95
2023-01-19T07:23:04.274Z,99521.79
2023-01-19T07:28:01.438Z,99531.44
2023-01-19T07:32:58.787Z,99537.80
2023-01-19T07:37:52.046Z,99537.73
2023-01-19T07:42:52.155Z,99528.66
2023-01-19T07:47:49.876Z,99534.82
2023-01-19T07:52:43.163Z,99549.34
2023-01-19T07:57:36.985Z,99564.19
2023-01-19T08:02:30.320Z,99571.98
2023-01-19T08:07:23.185Z,99577.56
2023-01-19T08:12:16.044Z,99561.23
2023-01-19T08:17:08.828Z,99554.31
2023-01-19T08:22:01.717Z,99547.75
2023-01-19T08:27:00.636Z,99544.25
2023-01-19T08:31:55.922Z,99540.74
2023-01-19T08:36:49.399Z,99549.67
2023-01-19T08:41:42.285Z,99561.35
2023-01-19T08:46:35.142Z,99563.98
2023-01-19T08:51:27.928Z,99571.59
2023-01-19T08:56:20.937Z,99574.95
2023-01-19T09:01:17.108Z,99582.09
2023-01-19T09:06:14.988Z,99582.11
2023-01-19T09:11:12.534Z,99576.30
2023-01-19T09:16:07.804Z,99569.36
2023-01-19T09:21:00.968Z,99573.52
2023-01-19T09:25:59.589Z,99591.73
2023-01-19T09:30:52.765Z,99586.94
2023-01-19T09:35:47.641Z,99590.38
2023-01-19T09:40:51.852Z,99604.49
2023-01-19T09:46:05.421Z,99590.36
2023-01-19T09:51:03.463Z,99596.52
2023-01-19T09:55:56.284Z,99596.24
2023-01-19T10:01:00.401Z,99585.76
2023-01-19T10:06:01.170Z,99583.34
2023-01-19T10:10:56.196Z,99577.85
2023-01-19T10:15:57.963Z,99578.71
2023-01-19T10:20:56.494Z,99564.98
2023-01-19T10:25:49.422Z,99564.31
2023-01-19T10:30:46.078Z,99551.26
2023-01-19T10:35:38.964Z,99538.87
2023-01-19T10:40:41.402Z,99534.50
2023-01-19T10:45:36.764Z,99532.69
2023-01-19T10:50:33.260Z,99532.13
2023-01-19T10:55:26.706Z,99532.13
2023-01-19T11:00:42.420Z,99532.14
2023-01-19T11:05:35.560Z,99527.16
2023-01-19T11:10:31.136Z,99524.31
2023-01-19T11:15:29.864Z,99533.27
2023-01-19T11:20:29.497Z,99532.64
2023-01-19T11:25:32.788Z,99527.45
2023-01-19T11:30:27.501Z,99519.05
2023-01-19T11:35:33.120Z,99519.09
2023-01-19T11:40:25.956Z,99517.69
2023-01-19T11:45:20.497Z,99517.92
2023-01-19T11:50:28.171Z,99513.92
2023-01-19T11:55:44.889Z,99511.88
2023-01-19T12:00:44.132Z,99502.44
2023-01-19T12:05:40.555Z,99505.90
2023-01-19T12:10:41.718Z,99506.11
2023-01-19T12:15:43.157Z,99511.71
2023-01-19T12:20:44.519Z,99509.63
2023-01-19T12:25:54.839Z,99512.49
2023-01-19T12:30:47.945Z,99510.08
2023-01-19T12:36:03.123Z,99499.00
2023-01-19T12:41:27.791Z,99495.80
2023-01-19T12:46:29.243Z,99506.96
2023-01-19T12:51:26.708Z,99503.33
2023-01-19T12:56:20.223Z,99504.34
2023-01-19T13:01:16.677Z,99505.98
2023-01-19T13:06:09.628Z,99496.80
2023-01-19T13:11:03.039Z,99493.44
2023-01-19T13:15:58.462Z,99487.81
2023-01-19T13:20:56.365Z,99490.81
2023-01-19T13:25:53.515Z,99489.50
2023-01-19T13:30:57.020Z,99492.64
2023-01-19T13:35:59.264Z,99495.17
2023-01-19T13:40:53.496Z,99493.41
2023-01-19T13:45:53.568Z,99499.36
2023-01-19T13:51:05.392Z,99504.80
2023-01-19T13:56:17.416Z,99510.92
2023-01-19T14:01:26.128Z,99513.55
2023-01-19T14:06:32.904Z,99511.98
2023-01-19T14:11:25.710Z,99511.67
2023-01-19T14:16:19.346Z,99509.05
2023-01-19T14:21:18.668Z,99505.71
2023-01-19T14:26:47.337Z,99509.52
2023-01-19T14:31:47.663Z,99515.02
2023-01-19T14:36:42.075Z,99514.06
2023-01-19T14:41:53.902Z,99517.14
2023-01-19T14:46:49.040Z,99517.64
2023-01-19T14:51:41.931Z,99518.50
2023-01-19T14:56:35.907Z,99518.99
2023-01-19T15:01:31.234Z,99520.99
2023-01-19T15:06:26.197Z,99528.41
2023-01-19T15:11:28.208Z,99533.83
2023-01-19T15:16:21.609Z,99535.15
2023-01-19T15:21:20.612Z,99539.57
2023-01-19T15:26:18.650Z,99550.31
2023-01-19T15:31:16.541Z,99539.01
2023-01-19T15:36:17.001Z,99531.61
2023-01-19T15:41:14.626Z,99537.03
2023-01-19T15:46:07.980Z,99544.48
2023-01-19T15:51:01.049Z,99551.98
2023-01-19T15:55:56.988Z,99551.91
2023-01-19T16:00:57.915Z,99549.33
2023-01-19T16:05:50.758Z,99549.14
2023-01-19T16:10:43.946Z,99544.12
2023-01-19T16:15:38.085Z,99545.25
2023-01-19T16:20:30.903Z,99546.02
2023-01-19T16:25:23.875Z,99548.32
2023-01-19T16:30:19.450Z,99554.42
2023-01-19T16:35:12.932Z,99557.23
2023-01-19T16:40:06.056Z,99557.54
2023-01-19T16:44:58.879Z,99556.96
2023-01-19T16:49:51.698Z,99558.64
2023-01-19T16:54:44.905Z,99562.84
2023-01-19T16:59:39.617Z,99566.89
2023-01-19T17:04:32.913Z,99559.80
2023-01-19T17:09:25.745Z,99560.57
2023-01-19T17:14:21.030Z,99561.08
2023-01-19T17:19:19.044Z,99550.10
2023-01-19T17:24:11.941Z,99549.04
2023-01-19T17:29:10.243Z,99549.48
2023-01-19T17:34:03.463Z,99541.38
2023-01-19T17:39:01.431Z,99543.20
2023-01-19T17:43:54.687Z,99541.80
2023-01-19T17:48:53.520Z,99529.86
2023-01-19T17:53:46.331Z,99535.52
2023-01-19T17:58:40.248Z,99551.16
2023-01-19T18:03:33.052Z,99553.29
2023-01-19T18:08:26.083Z,99547.19
2023-01-19T18:13:18.871Z,99548.20
2023-01-19T18:18:11.635Z,99542.00
2023-01-19T18:23:04.410Z,99546.77
2023-01-19T18:27:57.191Z,99546.90
2023-01-19T18:32:51.665Z,99548.22
2023-01-19T18:37:44.523Z,99552.71
2023-01-19T18:42:37.401Z,99549.71
2023-01-19T18:47:30.998Z,99546.55
2023-01-19T18:52:23.833Z,99547.80
2023-01-19T18:57:17.969Z,99552.04
2023-01-19T19:02:13.843Z,99550.27
2023-01-19T19:07:06.719Z,99549.68
2023-01-19T19:11:59.950Z,99552.47
2023-01-19T19:16:52.881Z,99554.89
2023-01-19T19:21:45.772Z,99562.94
2023-01-19T19:26:38.963Z,99559.82
2023-01-19T19:31:32.153Z,99563.02
2023-01-19T19:36:26.640Z,99564.47
2023-01-19T19:41:22.417Z,99565.77
2023-01-19T19:46:18.007Z,99572.48
2023-01-19T19:51:18.581Z,99578.23
2023-01-19T19:56:14.100Z,99582.95
2023-01-19T20:01:16.298Z,99584.98
2023-01-19T20:06:15.035Z,99590.94
2023-01-19T20:11:14.187Z,99598.51
2023-01-19T20:16:11.135Z,99600.70
2023-01-19T20:21:13.119Z,99599.16
2023-01-19T20:26:07.975Z,99603.31
2023-01-19T20:31:14.439Z,99610.41
2023-01-19T20:36:07.719Z,99613.95
2023-01-19T20:41:01.461Z,99618.02
2023-01-19T20:45:54.392Z,99614.38
2023-01-19T20:50:47.217Z,99618.96
2023-01-19T20:55:40.685Z,99629.10
2023-01-19T21:00:34.710Z,99619.81
2023-01-19T21:05:28.495Z,99618.23
2023-01-19T21:10:22.364Z,99623.66
2023-01-19T21:15:15.723Z,99625.02
2023-01-19T21:20:09.402Z,99627.40
2023-01-19T21:25:02.603Z,99641.98
2023-01-19T21:29:55.872Z,99651.52
2023-01-19T21:34:49.279Z,99660.40
2023-01-19T21:39:42.152Z,99671.65
2023-01-19T21:44:36.083Z,99680.60
2023-01-19T21:49:28.921Z,99687.04
2023-01-19T21:54:21.727Z,99696.40
2023-01-19T21:59:16.108Z,99696.58
2023-01-19T22:04:08.952Z,99701.96
2023-01-19T22:09:01.796Z,99701.13
2023-01-19T22:13:55.605Z,99703.36
2023-01-19T22:18:56.446Z,99706.16
2023-01-19T22:23:52.802Z,99715.29
2023-01-19T22:28:45.950Z,99711.67
2023-01-19T22:33:38.762Z,99708.77
2023-01-19T22:38:31.551Z,99711.29
2023-01-19T22:43:24.338Z,99720.49
2023-01-19T22:48:17.123Z,99720.92
2023-01-19T22:53:10.462Z,99726.40
2023-01-19T22:58:03.281Z,99734.21
2023-01-19T23:02:56.057Z,99739.11
2023-01-19T23:07:48.850Z,99751.19
2023-01-19T23:12:41.676Z,99770.41
2023-01-19T23:17:35.374Z,99778.05
2023-01-19T23:22:28.495Z,99780.77
2023-01-19T23:27:21.672Z,99776.69
2023-01-19T23:32:14.486Z,99770.36
2023-01-19T23:37:07.429Z,99778.20
2023-01-19T23:42:00.209Z,99776.66
2023-01-19T23:46:52.984Z,99789.16
2023-01-19T23:51:45.781Z,99797.86
2023-01-19T23:56:39.924Z,99811.52
